»·PEaware :: N431JP KWHP-KCNO

N431JP :: KWHP-KCNO

FLIGHT INFORMATION

Flight Status: Arrived
Operator: Privately registered:
United States
More flights under this callsign
Pilot: August T. (1999)
Aircraft: CESSNA 172 SKYHAWK
(C172)
More flights by this aircraft type
Origin: KWHP Whiteman
United States
Destination: KCNO Chino
United States
More flights between these airports :: More routes between these airports
Route: +VNY V186 PDZ
File this flight plan on PilotEdge
Remarks:
Altitude:
(Current/Filed)
5,000ft
Speed:
(Current/Filed)
105kts
Departed: 01-Dec-18 01:51 PM
Arrived: 01-Dec-18 02:42 PM
Distance/Time
Traveled:
42nm/0:50
Distance/Time
To Go:
Arrived

Flight Plot

Page will automatically refresh every two minutes.

Flight plan parsing failed; only flown route is shown


Map Options




Map Legend


Flown Route
Filed Route
Departure Airport
Arrival Airport
Navaid (VOR, NDB)
Fix

Horizontal Profiles

Position Reports

Time Latitude Longitude Heading Altitude Ground
Speed
01-Dec-18 13:34 34.260587 -118.413405 138 998ft 0kts
01-Dec-18 13:35 34.260587 -118.413405 138 998ft 0kts
01-Dec-18 13:36 34.260587 -118.413405 138 998ft 0kts
01-Dec-18 13:37 34.260587 -118.413405 138 998ft 0kts
01-Dec-18 13:38 34.260587 -118.413405 138 998ft 0kts
01-Dec-18 13:39 34.260587 -118.413405 138 998ft 0kts
01-Dec-18 13:40 34.260587 -118.413405 138 998ft 0kts
01-Dec-18 13:41 34.260587 -118.413405 138 998ft 0kts
01-Dec-18 13:42 34.260587 -118.413405 138 998ft 0kts
01-Dec-18 13:43 34.260587 -118.413405 138 998ft 0kts
01-Dec-18 13:44 34.260587 -118.413405 138 998ft 0kts
01-Dec-18 13:45 34.260587 -118.413405 138 998ft 0kts
01-Dec-18 13:46 34.260587 -118.413405 138 998ft 0kts
01-Dec-18 13:47 34.260587 -118.413405 138 998ft 0kts
01-Dec-18 13:48 34.260327 -118.413522 227 996ft 3kts
01-Dec-18 13:49 34.258934 -118.412390 137 989ft 9kts
01-Dec-18 13:50 34.257245 -118.410614 136 979ft 6kts
01-Dec-18 13:51 34.255874 -118.409171 137 971ft 5kts
01-Dec-18 13:52 34.255653 -118.408945 148 970ft 0kts
01-Dec-18 13:53 34.255648 -118.408941 148 970ft 0kts
01-Dec-18 13:54 34.258231 -118.412329 319 986ft 74kts
01-Dec-18 13:55 34.276125 -118.428385 288 1886ft 83kts
01-Dec-18 13:56 34.277662 -118.456043 275 2788ft 82kts
01-Dec-18 13:57 34.278301 -118.483448 273 3636ft 82kts
01-Dec-18 13:58 34.280356 -118.510581 313 4389ft 86kts
01-Dec-18 13:59 34.298378 -118.528226 283 4999ft 93kts
01-Dec-18 14:00 34.278537 -118.538081 140 5010ft 117kts
01-Dec-18 14:01 34.252889 -118.513852 151 5038ft 117kts
01-Dec-18 14:02 34.225283 -118.491634 149 5042ft 120kts
01-Dec-18 14:03 34.212178 -118.455248 104 5060ft 124kts
01-Dec-18 14:04 34.201923 -118.415170 109 5032ft 125kts
01-Dec-18 14:05 34.190463 -118.375389 109 5007ft 126kts
01-Dec-18 14:06 34.178308 -118.335950 112 5002ft 125kts
01-Dec-18 14:07 34.165827 -118.297080 113 5008ft 123kts
01-Dec-18 14:08 34.153900 -118.258356 110 5002ft 123kts
01-Dec-18 14:09 34.141895 -118.219986 112 4996ft 122kts
01-Dec-18 14:10 34.130250 -118.181487 113 5027ft 122kts
01-Dec-18 14:11 34.119196 -118.142891 111 5055ft 121kts
01-Dec-18 14:12 34.108884 -118.106648 115 4982ft 110kts
01-Dec-18 14:13 34.097800 -118.072872 118 4974ft 107kts
01-Dec-18 14:14 34.086505 -118.039189 114 4965ft 110kts
01-Dec-18 14:15 34.076140 -118.003951 114 5003ft 112kts
01-Dec-18 14:16 34.065198 -117.967857 117 5011ft 117kts
01-Dec-18 14:17 34.053249 -117.930833 115 5021ft 120kts
01-Dec-18 14:18 34.040836 -117.893179 115 5019ft 121kts
01-Dec-18 14:19 34.028196 -117.855078 110 5003ft 124kts
01-Dec-18 14:20 34.016428 -117.816562 111 5031ft 122kts
01-Dec-18 14:21 34.004167 -117.778339 111 5044ft 123kts
01-Dec-18 14:22 33.992120 -117.739988 109 5061ft 122kts
01-Dec-18 14:23 33.978715 -117.702360 113 5068ft 123kts
01-Dec-18 14:24 33.965515 -117.664787 110 5065ft 123kts
01-Dec-18 14:25 33.952657 -117.627725 114 5055ft 117kts
01-Dec-18 14:26 33.939063 -117.591750 111 5023ft 118kts
01-Dec-18 14:27 33.927786 -117.554546 109 5011ft 118kts
01-Dec-18 14:28 33.920957 -117.516455 91 5000ft 117kts
01-Dec-18 14:29 33.918713 -117.477363 91 5004ft 117kts
01-Dec-18 14:30 33.916599 -117.438347 92 5009ft 117kts
01-Dec-18 14:31 33.913832 -117.400043 92 4567ft 113kts
01-Dec-18 14:32 33.911708 -117.362764 89 4261ft 110kts
01-Dec-18 14:33 33.927450 -117.341736 351 4242ft 95kts
01-Dec-18 14:34 33.945296 -117.360442 301 4225ft 88kts
01-Dec-18 14:35 33.958767 -117.384977 301 4256ft 88kts
01-Dec-18 14:36 33.972571 -117.409408 301 4288ft 88kts
01-Dec-18 14:37 33.977316 -117.437809 270 3862ft 88kts
01-Dec-18 14:38 33.976862 -117.467525 270 3331ft 88kts
01-Dec-18 14:39 33.976605 -117.497415 271 2855ft 89kts
01-Dec-18 14:40 33.976368 -117.527197 272 2333ft 89kts
01-Dec-18 14:41 33.976525 -117.552130 267 1913ft 90kts
01-Dec-18 14:42 33.976008 -117.586440 270 1401ft 88kts
01-Dec-18 14:43 33.975906 -117.610766 271 1003ft 86kts
01-Dec-18 14:44 33.975711 -117.638372 275 627ft 46kts
01-Dec-18 14:45 33.976491 -117.644131 4 620ft 7kts
01-Dec-18 14:46 33.976545 -117.644126 2 620ft 0kts
01-Dec-18 14:47 33.976864 -117.641325 91 625ft 10kts

Navigation Log

Ident Type
Flight plan parsing failed, navigation log unavailable